sensor_id;sensor_type;location;lat;lon;timestamp;P1;durP1;ratioP1;P2;durP2;ratioP2
18612;SDS011;9436;52.152;21.032;2022-09-16T00:00:59;6.87;;;4.70;;
18612;SDS011;9436;52.152;21.032;2022-09-16T00:03:26;6.93;;;4.97;;
18612;SDS011;9436;52.152;21.032;2022-09-16T00:05:53;5.43;;;4.87;;
18612;SDS011;9436;52.152;21.032;2022-09-16T00:08:20;7.20;;;5.00;;
18612;SDS011;9436;52.152;21.032;2022-09-16T00:10:47;6.40;;;5.07;;
18612;SDS011;9436;52.152;21.032;2022-09-16T00:13:16;5.97;;;5.20;;
18612;SDS011;9436;52.152;21.032;2022-09-16T00:15:44;6.30;;;4.73;;
18612;SDS011;9436;52.152;21.032;2022-09-16T00:18:13;5.43;;;4.90;;
18612;SDS011;9436;52.152;21.032;2022-09-16T00:20:44;5.73;;;4.77;;
18612;SDS011;9436;52.152;21.032;2022-09-16T00:23:11;5.43;;;4.93;;
18612;SDS011;9436;52.152;21.032;2022-09-16T00:25:38;6.30;;;5.20;;
18612;SDS011;9436;52.152;21.032;2022-09-16T00:28:05;6.40;;;4.90;;
18612;SDS011;9436;52.152;21.032;2022-09-16T00:30:34;6.30;;;4.93;;
18612;SDS011;9436;52.152;21.032;2022-09-16T00:33:01;7.60;;;5.13;;
18612;SDS011;9436;52.152;21.032;2022-09-16T00:35:28;6.43;;;4.90;;
18612;SDS011;9436;52.152;21.032;2022-09-16T00:37:55;5.00;;;4.50;;
18612;SDS011;9436;52.152;21.032;2022-09-16T00:40:22;5.17;;;4.40;;
18612;SDS011;9436;52.152;21.032;2022-09-16T00:42:49;5.20;;;4.70;;
18612;SDS011;9436;52.152;21.032;2022-09-16T00:45:17;6.40;;;4.80;;
18612;SDS011;9436;52.152;21.032;2022-09-16T00:47:47;5.23;;;4.73;;
18612;SDS011;9436;52.152;21.032;2022-09-16T00:50:18;6.77;;;5.27;;
18612;SDS011;9436;52.152;21.032;2022-09-16T00:52:48;6.20;;;5.07;;
18612;SDS011;9436;52.152;21.032;2022-09-16T00:55:18;5.37;;;4.87;;
18612;SDS011;9436;52.152;21.032;2022-09-16T00:57:48;6.40;;;5.10;;
18612;SDS011;9436;52.152;21.032;2022-09-16T01:00:17;5.57;;;4.83;;
18612;SDS011;9436;52.152;21.032;2022-09-16T01:02:44;4.97;;;4.47;;
18612;SDS011;9436;52.152;21.032;2022-09-16T01:05:16;6.33;;;5.43;;
18612;SDS011;9436;52.152;21.032;2022-09-16T01:07:46;6.80;;;5.13;;
18612;SDS011;9436;52.152;21.032;2022-09-16T01:10:15;6.30;;;5.23;;
18612;SDS011;9436;52.152;21.032;2022-09-16T01:12:46;5.03;;;4.37;;
18612;SDS011;9436;52.152;21.032;2022-09-16T01:15:16;7.60;;;4.73;;
18612;SDS011;9436;52.152;21.032;2022-09-16T01:17:54;8.33;;;5.13;;
18612;SDS011;9436;52.152;21.032;2022-09-16T01:23:49;6.30;;;4.60;;
18612;SDS011;9436;52.152;21.032;2022-09-16T01:29:35;7.77;;;5.00;;
18612;SDS011;9436;52.152;21.032;2022-09-16T01:32:16;6.40;;;4.57;;
18612;SDS011;9436;52.152;21.032;2022-09-16T01:34:52;5.70;;;4.20;;
18612;SDS011;9436;52.152;21.032;2022-09-16T01:37:31;4.80;;;4.20;;
18612;SDS011;9436;52.152;21.032;2022-09-16T01:40:05;6.53;;;4.20;;
18612;SDS011;9436;52.152;21.032;2022-09-16T01:42:37;5.23;;;4.20;;
18612;SDS011;9436;52.152;21.032;2022-09-16T01:45:14;5.50;;;4.17;;
18612;SDS011;9436;52.152;21.032;2022-09-16T01:47:49;5.27;;;3.83;;
18612;SDS011;9436;52.152;21.032;2022-09-16T01:50:23;4.87;;;3.27;;
18612;SDS011;9436;52.152;21.032;2022-09-16T01:52:56;4.23;;;3.40;;
18612;SDS011;9436;52.152;21.032;2022-09-16T01:55:27;4.37;;;3.47;;
18612;SDS011;9436;52.152;21.032;2022-09-16T01:57:58;5.00;;;3.10;;
18612;SDS011;9436;52.152;21.032;2022-09-16T02:00:30;4.53;;;3.33;;
18612;SDS011;9436;52.152;21.032;2022-09-16T02:03:00;6.47;;;3.60;;
18612;SDS011;9436;52.152;21.032;2022-09-16T02:05:32;4.87;;;3.30;;
18612;SDS011;9436;52.152;21.032;2022-09-16T02:08:04;5.43;;;3.00;;
18612;SDS011;9436;52.152;21.032;2022-09-16T02:10:34;4.73;;;3.00;;
18612;SDS011;9436;52.152;21.032;2022-09-16T02:13:07;4.60;;;3.10;;
18612;SDS011;9436;52.152;21.032;2022-09-16T02:15:39;4.83;;;3.17;;
18612;SDS011;9436;52.152;21.032;2022-09-16T02:18:12;3.90;;;2.70;;
18612;SDS011;9436;52.152;21.032;2022-09-16T02:20:44;4.47;;;3.00;;
18612;SDS011;9436;52.152;21.032;2022-09-16T02:23:14;4.67;;;2.90;;
18612;SDS011;9436;52.152;21.032;2022-09-16T02:25:45;6.97;;;3.47;;
18612;SDS011;9436;52.152;21.032;2022-09-16T02:28:15;5.83;;;3.03;;
18612;SDS011;9436;52.152;21.032;2022-09-16T02:30:46;3.67;;;2.90;;
18612;SDS011;9436;52.152;21.032;2022-09-16T02:33:19;4.33;;;3.47;;
18612;SDS011;9436;52.152;21.032;2022-09-16T02:35:50;5.23;;;3.30;;
18612;SDS011;9436;52.152;21.032;2022-09-16T02:38:20;4.30;;;2.93;;
18612;SDS011;9436;52.152;21.032;2022-09-16T02:40:51;3.90;;;3.03;;
18612;SDS011;9436;52.152;21.032;2022-09-16T02:43:20;3.43;;;3.00;;
18612;SDS011;9436;52.152;21.032;2022-09-16T02:45:50;4.93;;;3.40;;
18612;SDS011;9436;52.152;21.032;2022-09-16T02:48:26;5.47;;;3.10;;
18612;SDS011;9436;52.152;21.032;2022-09-16T02:51:01;3.90;;;2.97;;
18612;SDS011;9436;52.152;21.032;2022-09-16T02:53:41;5.07;;;3.50;;
18612;SDS011;9436;52.152;21.032;2022-09-16T02:56:12;3.60;;;3.10;;
18612;SDS011;9436;52.152;21.032;2022-09-16T02:58:44;4.50;;;3.30;;
18612;SDS011;9436;52.152;21.032;2022-09-16T03:01:11;5.20;;;3.67;;
18612;SDS011;9436;52.152;21.032;2022-09-16T03:03:40;7.07;;;3.93;;
18612;SDS011;9436;52.152;21.032;2022-09-16T03:06:15;4.07;;;3.67;;
18612;SDS011;9436;52.152;21.032;2022-09-16T03:08:45;4.97;;;3.70;;
18612;SDS011;9436;52.152;21.032;2022-09-16T03:14:31;4.97;;;3.20;;
18612;SDS011;9436;52.152;21.032;2022-09-16T03:17:11;4.23;;;3.27;;
18612;SDS011;9436;52.152;21.032;2022-09-16T03:19:50;6.67;;;3.60;;
18612;SDS011;9436;52.152;21.032;2022-09-16T03:22:31;7.20;;;3.70;;
18612;SDS011;9436;52.152;21.032;2022-09-16T03:25:10;4.37;;;3.30;;
18612;SDS011;9436;52.152;21.032;2022-09-16T03:27:46;4.03;;;3.33;;
18612;SDS011;9436;52.152;21.032;2022-09-16T03:30:17;5.00;;;3.60;;
18612;SDS011;9436;52.152;21.032;2022-09-16T03:32:46;5.03;;;3.67;;
18612;SDS011;9436;52.152;21.032;2022-09-16T03:35:18;5.80;;;3.43;;
18612;SDS011;9436;52.152;21.032;2022-09-16T03:37:52;4.53;;;3.50;;
18612;SDS011;9436;52.152;21.032;2022-09-16T03:40:20;5.10;;;3.93;;
18612;SDS011;9436;52.152;21.032;2022-09-16T03:42:48;5.10;;;3.90;;
18612;SDS011;9436;52.152;21.032;2022-09-16T03:45:16;5.53;;;3.63;;
18612;SDS011;9436;52.152;21.032;2022-09-16T03:47:45;3.73;;;3.33;;
18612;SDS011;9436;52.152;21.032;2022-09-16T03:50:14;6.17;;;4.20;;
18612;SDS011;9436;52.152;21.032;2022-09-16T03:52:43;5.10;;;3.67;;
18612;SDS011;9436;52.152;21.032;2022-09-16T03:55:10;4.23;;;3.83;;
18612;SDS011;9436;52.152;21.032;2022-09-16T03:57:37;4.83;;;3.83;;
18612;SDS011;9436;52.152;21.032;2022-09-16T04:00:05;5.90;;;3.70;;
18612;SDS011;9436;52.152;21.032;2022-09-16T04:02:33;5.87;;;3.80;;
18612;SDS011;9436;52.152;21.032;2022-09-16T04:05:00;5.13;;;3.50;;
18612;SDS011;9436;52.152;21.032;2022-09-16T04:07:28;4.03;;;3.63;;
18612;SDS011;9436;52.152;21.032;2022-09-16T04:09:58;5.13;;;3.50;;
18612;SDS011;9436;52.152;21.032;2022-09-16T04:12:26;5.27;;;3.77;;
18612;SDS011;9436;52.152;21.032;2022-09-16T04:14:53;4.07;;;3.57;;
18612;SDS011;9436;52.152;21.032;2022-09-16T04:17:22;4.93;;;3.90;;
18612;SDS011;9436;52.152;21.032;2022-09-16T04:19:49;4.10;;;3.77;;
18612;SDS011;9436;52.152;21.032;2022-09-16T04:22:17;5.97;;;3.80;;
18612;SDS011;9436;52.152;21.032;2022-09-16T04:24:44;4.87;;;3.90;;
18612;SDS011;9436;52.152;21.032;2022-09-16T04:27:13;4.70;;;3.60;;
18612;SDS011;9436;52.152;21.032;2022-09-16T04:29:40;5.73;;;3.93;;
18612;SDS011;9436;52.152;21.032;2022-09-16T04:32:07;6.47;;;4.30;;
18612;SDS011;9436;52.152;21.032;2022-09-16T04:34:34;5.23;;;3.77;;
18612;SDS011;9436;52.152;21.032;2022-09-16T04:37:01;5.40;;;4.17;;
18612;SDS011;9436;52.152;21.032;2022-09-16T04:39:28;6.00;;;4.17;;
18612;SDS011;9436;52.152;21.032;2022-09-16T04:41:55;5.30;;;4.10;;
18612;SDS011;9436;52.152;21.032;2022-09-16T04:44:25;5.10;;;4.30;;
18612;SDS011;9436;52.152;21.032;2022-09-16T04:46:54;4.60;;;4.10;;
18612;SDS011;9436;52.152;21.032;2022-09-16T04:49:21;5.40;;;4.80;;
18612;SDS011;9436;52.152;21.032;2022-09-16T04:51:48;4.57;;;3.90;;
18612;SDS011;9436;52.152;21.032;2022-09-16T04:54:16;5.13;;;3.93;;
18612;SDS011;9436;52.152;21.032;2022-09-16T04:56:43;6.37;;;4.13;;
18612;SDS011;9436;52.152;21.032;2022-09-16T04:59:10;8.23;;;4.03;;
18612;SDS011;9436;52.152;21.032;2022-09-16T05:01:39;6.87;;;4.40;;
18612;SDS011;9436;52.152;21.032;2022-09-16T05:04:08;5.13;;;4.00;;
18612;SDS011;9436;52.152;21.032;2022-09-16T05:06:36;5.83;;;4.03;;
18612;SDS011;9436;52.152;21.032;2022-09-16T05:09:05;5.33;;;3.90;;
18612;SDS011;9436;52.152;21.032;2022-09-16T05:11:33;6.67;;;4.43;;
18612;SDS011;9436;52.152;21.032;2022-09-16T05:14:02;5.13;;;3.70;;
18612;SDS011;9436;52.152;21.032;2022-09-16T05:16:30;5.63;;;3.73;;
18612;SDS011;9436;52.152;21.032;2022-09-16T05:18:59;6.67;;;3.73;;
18612;SDS011;9436;52.152;21.032;2022-09-16T05:21:30;5.60;;;3.43;;
18612;SDS011;9436;52.152;21.032;2022-09-16T05:23:59;4.57;;;3.60;;
18612;SDS011;9436;52.152;21.032;2022-09-16T05:26:28;4.73;;;3.20;;
18612;SDS011;9436;52.152;21.032;2022-09-16T05:28:59;5.00;;;3.90;;
18612;SDS011;9436;52.152;21.032;2022-09-16T05:31:27;4.70;;;3.17;;
18612;SDS011;9436;52.152;21.032;2022-09-16T05:33:56;4.10;;;3.40;;
18612;SDS011;9436;52.152;21.032;2022-09-16T05:36:27;5.33;;;3.60;;
18612;SDS011;9436;52.152;21.032;2022-09-16T05:38:55;7.63;;;3.60;;
18612;SDS011;9436;52.152;21.032;2022-09-16T05:41:22;6.10;;;3.40;;
18612;SDS011;9436;52.152;21.032;2022-09-16T05:43:50;4.73;;;3.20;;
18612;SDS011;9436;52.152;21.032;2022-09-16T05:46:19;4.40;;;3.40;;
18612;SDS011;9436;52.152;21.032;2022-09-16T05:48:47;3.90;;;2.80;;
18612;SDS011;9436;52.152;21.032;2022-09-16T05:51:16;5.37;;;3.20;;
18612;SDS011;9436;52.152;21.032;2022-09-16T05:53:45;6.33;;;2.93;;
18612;SDS011;9436;52.152;21.032;2022-09-16T05:56:14;5.77;;;3.07;;
18612;SDS011;9436;52.152;21.032;2022-09-16T05:58:42;5.47;;;3.07;;
18612;SDS011;9436;52.152;21.032;2022-09-16T06:01:10;5.33;;;2.87;;
18612;SDS011;9436;52.152;21.032;2022-09-16T06:03:40;6.93;;;3.00;;
18612;SDS011;9436;52.152;21.032;2022-09-16T06:06:10;5.97;;;2.70;;
18612;SDS011;9436;52.152;21.032;2022-09-16T06:08:40;4.00;;;2.50;;
18612;SDS011;9436;52.152;21.032;2022-09-16T06:11:08;6.17;;;2.77;;
18612;SDS011;9436;52.152;21.032;2022-09-16T06:13:36;7.40;;;2.80;;
18612;SDS011;9436;52.152;21.032;2022-09-16T06:16:04;4.03;;;2.70;;
18612;SDS011;9436;52.152;21.032;2022-09-16T06:18:33;4.33;;;2.40;;
18612;SDS011;9436;52.152;21.032;2022-09-16T06:21:02;6.37;;;2.83;;
18612;SDS011;9436;52.152;21.032;2022-09-16T06:23:30;3.33;;;2.50;;
18612;SDS011;9436;52.152;21.032;2022-09-16T06:25:59;3.17;;;2.80;;
18612;SDS011;9436;52.152;21.032;2022-09-16T06:28:27;4.10;;;2.30;;
18612;SDS011;9436;52.152;21.032;2022-09-16T06:31:01;8.17;;;2.90;;
18612;SDS011;9436;52.152;21.032;2022-09-16T06:33:30;3.47;;;2.47;;
18612;SDS011;9436;52.152;21.032;2022-09-16T06:36:01;4.23;;;2.53;;
18612;SDS011;9436;52.152;21.032;2022-09-16T06:38:29;3.40;;;2.60;;
18612;SDS011;9436;52.152;21.032;2022-09-16T06:40:57;3.43;;;2.60;;
18612;SDS011;9436;52.152;21.032;2022-09-16T06:43:26;6.50;;;2.63;;
18612;SDS011;9436;52.152;21.032;2022-09-16T06:45:57;5.37;;;2.70;;
18612;SDS011;9436;52.152;21.032;2022-09-16T06:48:25;5.77;;;2.63;;
18612;SDS011;9436;52.152;21.032;2022-09-16T06:50:59;8.90;;;3.03;;
18612;SDS011;9436;52.152;21.032;2022-09-16T06:53:27;4.30;;;2.40;;
18612;SDS011;9436;52.152;21.032;2022-09-16T06:56:00;4.40;;;2.37;;
18612;SDS011;9436;52.152;21.032;2022-09-16T06:58:30;4.97;;;2.60;;
18612;SDS011;9436;52.152;21.032;2022-09-16T07:00:58;3.50;;;2.03;;
18612;SDS011;9436;52.152;21.032;2022-09-16T07:03:29;4.80;;;2.30;;
18612;SDS011;9436;52.152;21.032;2022-09-16T07:05:56;3.47;;;2.30;;
18612;SDS011;9436;52.152;21.032;2022-09-16T07:08:26;5.97;;;2.67;;
18612;SDS011;9436;52.152;21.032;2022-09-16T07:10:54;5.63;;;2.30;;
18612;SDS011;9436;52.152;21.032;2022-09-16T07:13:24;6.77;;;2.60;;
18612;SDS011;9436;52.152;21.032;2022-09-16T07:15:51;5.67;;;2.03;;
18612;SDS011;9436;52.152;21.032;2022-09-16T07:18:18;4.67;;;2.00;;
18612;SDS011;9436;52.152;21.032;2022-09-16T07:20:45;4.43;;;2.10;;
18612;SDS011;9436;52.152;21.032;2022-09-16T07:23:12;5.03;;;2.73;;
18612;SDS011;9436;52.152;21.032;2022-09-16T07:25:39;5.47;;;2.07;;
18612;SDS011;9436;52.152;21.032;2022-09-16T07:28:06;4.53;;;2.10;;
18612;SDS011;9436;52.152;21.032;2022-09-16T07:30:35;6.57;;;2.07;;
18612;SDS011;9436;52.152;21.032;2022-09-16T07:33:02;6.27;;;2.40;;
18612;SDS011;9436;52.152;21.032;2022-09-16T07:35:29;7.30;;;1.80;;
18612;SDS011;9436;52.152;21.032;2022-09-16T07:37:56;7.07;;;2.33;;
18612;SDS011;9436;52.152;21.032;2022-09-16T07:40:26;5.03;;;2.10;;
18612;SDS011;9436;52.152;21.032;2022-09-16T07:42:53;5.27;;;1.90;;
18612;SDS011;9436;52.152;21.032;2022-09-16T07:45:20;5.87;;;1.80;;
18612;SDS011;9436;52.152;21.032;2022-09-16T07:47:49;3.50;;;1.90;;
18612;SDS011;9436;52.152;21.032;2022-09-16T07:50:16;5.57;;;1.70;;
18612;SDS011;9436;52.152;21.032;2022-09-16T07:52:43;7.57;;;1.77;;
18612;SDS011;9436;52.152;21.032;2022-09-16T07:55:10;5.90;;;1.80;;
18612;SDS011;9436;52.152;21.032;2022-09-16T07:57:37;4.47;;;1.80;;
18612;SDS011;9436;52.152;21.032;2022-09-16T08:00:04;5.97;;;1.70;;
18612;SDS011;9436;52.152;21.032;2022-09-16T08:02:32;6.43;;;1.83;;
18612;SDS011;9436;52.152;21.032;2022-09-16T08:05:01;7.57;;;1.90;;
18612;SDS011;9436;52.152;21.032;2022-09-16T08:07:28;5.70;;;1.80;;
18612;SDS011;9436;52.152;21.032;2022-09-16T08:09:55;7.13;;;1.60;;
18612;SDS011;9436;52.152;21.032;2022-09-16T08:12:22;5.20;;;1.57;;
18612;SDS011;9436;52.152;21.032;2022-09-16T08:14:49;5.53;;;2.00;;
18612;SDS011;9436;52.152;21.032;2022-09-16T08:17:16;4.80;;;1.50;;
18612;SDS011;9436;52.152;21.032;2022-09-16T08:19:43;5.47;;;1.70;;
18612;SDS011;9436;52.152;21.032;2022-09-16T08:22:11;7.50;;;1.70;;
18612;SDS011;9436;52.152;21.032;2022-09-16T08:24:38;5.83;;;1.67;;
18612;SDS011;9436;52.152;21.032;2022-09-16T08:27:05;5.30;;;1.60;;
18612;SDS011;9436;52.152;21.032;2022-09-16T08:29:32;4.57;;;1.57;;
18612;SDS011;9436;52.152;21.032;2022-09-16T08:31:59;6.67;;;1.70;;
18612;SDS011;9436;52.152;21.032;2022-09-16T08:34:27;4.27;;;1.70;;
18612;SDS011;9436;52.152;21.032;2022-09-16T08:36:54;4.80;;;1.47;;
18612;SDS011;9436;52.152;21.032;2022-09-16T08:39:22;4.93;;;1.40;;
18612;SDS011;9436;52.152;21.032;2022-09-16T08:41:54;4.57;;;1.50;;
18612;SDS011;9436;52.152;21.032;2022-09-16T08:44:32;4.57;;;1.83;;
18612;SDS011;9436;52.152;21.032;2022-09-16T08:47:08;8.27;;;1.53;;
18612;SDS011;9436;52.152;21.032;2022-09-16T08:49:46;6.07;;;1.60;;
18612;SDS011;9436;52.152;21.032;2022-09-16T08:52:17;5.20;;;1.57;;
18612;SDS011;9436;52.152;21.032;2022-09-16T08:54:54;6.90;;;1.60;;
18612;SDS011;9436;52.152;21.032;2022-09-16T08:57:24;3.83;;;1.73;;
18612;SDS011;9436;52.152;21.032;2022-09-16T08:59:53;6.07;;;1.40;;
18612;SDS011;9436;52.152;21.032;2022-09-16T09:02:27;6.77;;;1.70;;
18612;SDS011;9436;52.152;21.032;2022-09-16T09:05:00;4.87;;;1.50;;
18612;SDS011;9436;52.152;21.032;2022-09-16T09:07:31;4.47;;;1.30;;
18612;SDS011;9436;52.152;21.032;2022-09-16T09:10:16;3.97;;;1.40;;
18612;SDS011;9436;52.152;21.032;2022-09-16T09:12:52;4.17;;;1.50;;
18612;SDS011;9436;52.152;21.032;2022-09-16T09:15:33;5.03;;;1.70;;
18612;SDS011;9436;52.152;21.032;2022-09-16T09:18:17;4.50;;;1.50;;
18612;SDS011;9436;52.152;21.032;2022-09-16T09:20:53;3.10;;;1.43;;
18612;SDS011;9436;52.152;21.032;2022-09-16T09:23:30;3.73;;;1.47;;
18612;SDS011;9436;52.152;21.032;2022-09-16T09:26:10;6.40;;;1.33;;
18612;SDS011;9436;52.152;21.032;2022-09-16T09:28:51;3.53;;;1.47;;
18612;SDS011;9436;52.152;21.032;2022-09-16T09:31:36;3.90;;;1.30;;
18612;SDS011;9436;52.152;21.032;2022-09-16T09:34:12;5.70;;;1.70;;
18612;SDS011;9436;52.152;21.032;2022-09-16T09:36:56;6.10;;;1.60;;
18612;SDS011;9436;52.152;21.032;2022-09-16T09:39:35;4.93;;;1.40;;
18612;SDS011;9436;52.152;21.032;2022-09-16T09:42:10;4.73;;;1.50;;
18612;SDS011;9436;52.152;21.032;2022-09-16T09:44:49;2.13;;;1.10;;
18612;SDS011;9436;52.152;21.032;2022-09-16T09:47:22;5.40;;;1.50;;
18612;SDS011;9436;52.152;21.032;2022-09-16T09:49:53;4.37;;;1.60;;
18612;SDS011;9436;52.152;21.032;2022-09-16T09:52:25;5.43;;;1.23;;
18612;SDS011;9436;52.152;21.032;2022-09-16T09:54:59;5.30;;;1.80;;
18612;SDS011;9436;52.152;21.032;2022-09-16T09:57:40;4.73;;;1.50;;
18612;SDS011;9436;52.152;21.032;2022-09-16T10:00:17;5.23;;;1.70;;
18612;SDS011;9436;52.152;21.032;2022-09-16T10:02:46;5.10;;;1.40;;
18612;SDS011;9436;52.152;21.032;2022-09-16T10:05:17;4.27;;;1.50;;
18612;SDS011;9436;52.152;21.032;2022-09-16T10:07:47;5.87;;;1.40;;
18612;SDS011;9436;52.152;21.032;2022-09-16T10:10:18;6.03;;;1.63;;
18612;SDS011;9436;52.152;21.032;2022-09-16T10:12:49;4.47;;;1.30;;
18612;SDS011;9436;52.152;21.032;2022-09-16T10:15:21;6.13;;;1.63;;
18612;SDS011;9436;52.152;21.032;2022-09-16T10:17:49;3.67;;;1.30;;
18612;SDS011;9436;52.152;21.032;2022-09-16T10:20:21;4.37;;;1.60;;
18612;SDS011;9436;52.152;21.032;2022-09-16T10:22:57;3.37;;;1.13;;
18612;SDS011;9436;52.152;21.032;2022-09-16T10:25:28;6.50;;;1.70;;
18612;SDS011;9436;52.152;21.032;2022-09-16T10:27:59;3.92;;;1.63;;
18612;SDS011;9436;52.152;21.032;2022-09-16T10:30:30;3.97;;;1.40;;
18612;SDS011;9436;52.152;21.032;2022-09-16T10:33:10;6.00;;;1.80;;
18612;SDS011;9436;52.152;21.032;2022-09-16T10:35:39;4.43;;;1.43;;
18612;SDS011;9436;52.152;21.032;2022-09-16T10:38:17;2.10;;;1.30;;
18612;SDS011;9436;52.152;21.032;2022-09-16T10:40:49;4.13;;;1.30;;
18612;SDS011;9436;52.152;21.032;2022-09-16T10:43:19;4.63;;;1.40;;
18612;SDS011;9436;52.152;21.032;2022-09-16T10:45:49;3.33;;;1.33;;
18612;SDS011;9436;52.152;21.032;2022-09-16T10:48:18;3.43;;;1.27;;
18612;SDS011;9436;52.152;21.032;2022-09-16T10:50:51;3.67;;;1.20;;
18612;SDS011;9436;52.152;21.032;2022-09-16T10:53:20;2.70;;;1.10;;
18612;SDS011;9436;52.152;21.032;2022-09-16T10:55:58;4.00;;;1.30;;
18612;SDS011;9436;52.152;21.032;2022-09-16T10:58:28;6.73;;;1.30;;
18612;SDS011;9436;52.152;21.032;2022-09-16T11:00:59;2.67;;;1.10;;
18612;SDS011;9436;52.152;21.032;2022-09-16T11:03:57;3.17;;;1.10;;
18612;SDS011;9436;52.152;21.032;2022-09-16T11:06:51;4.27;;;1.27;;
18612;SDS011;9436;52.152;21.032;2022-09-16T11:09:28;4.33;;;1.33;;
18612;SDS011;9436;52.152;21.032;2022-09-16T11:12:17;5.90;;;1.30;;
18612;SDS011;9436;52.152;21.032;2022-09-16T11:15:04;2.10;;;1.27;;
18612;SDS011;9436;52.152;21.032;2022-09-16T11:17:43;4.60;;;1.40;;
18612;SDS011;9436;52.152;21.032;2022-09-16T11:20:26;2.40;;;1.20;;
18612;SDS011;9436;52.152;21.032;2022-09-16T11:23:08;2.37;;;1.33;;
18612;SDS011;9436;52.152;21.032;2022-09-16T11:25:49;3.87;;;1.30;;
18612;SDS011;9436;52.152;21.032;2022-09-16T11:31:35;3.63;;;1.00;;
18612;SDS011;9436;52.152;21.032;2022-09-16T11:34:09;3.73;;;1.20;;
18612;SDS011;9436;52.152;21.032;2022-09-16T11:36:49;1.83;;;1.07;;
18612;SDS011;9436;52.152;21.032;2022-09-16T11:39:33;3.63;;;1.20;;
18612;SDS011;9436;52.152;21.032;2022-09-16T11:42:09;2.60;;;1.10;;
18612;SDS011;9436;52.152;21.032;2022-09-16T11:44:43;2.30;;;1.20;;
18612;SDS011;9436;52.152;21.032;2022-09-16T11:47:27;4.90;;;1.30;;
18612;SDS011;9436;52.152;21.032;2022-09-16T11:50:07;2.50;;;1.40;;
18612;SDS011;9436;52.152;21.032;2022-09-16T11:52:52;4.57;;;1.37;;
18612;SDS011;9436;52.152;21.032;2022-09-16T11:55:44;3.33;;;1.33;;
18612;SDS011;9436;52.152;21.032;2022-09-16T11:58:24;1.93;;;1.20;;
18612;SDS011;9436;52.152;21.032;2022-09-16T12:00:56;2.73;;;1.27;;
18612;SDS011;9436;52.152;21.032;2022-09-16T12:03:29;2.73;;;1.30;;
18612;SDS011;9436;52.152;21.032;2022-09-16T12:06:03;3.33;;;1.10;;
18612;SDS011;9436;52.152;21.032;2022-09-16T12:08:38;1.40;;;0.90;;
18612;SDS011;9436;52.152;21.032;2022-09-16T12:11:19;3.20;;;1.30;;
18612;SDS011;9436;52.152;21.032;2022-09-16T12:13:51;3.00;;;1.10;;
18612;SDS011;9436;52.152;21.032;2022-09-16T12:16:25;2.73;;;1.50;;
18612;SDS011;9436;52.152;21.032;2022-09-16T12:19:00;4.57;;;1.10;;
18612;SDS011;9436;52.152;21.032;2022-09-16T12:21:33;2.63;;;1.13;;
18612;SDS011;9436;52.152;21.032;2022-09-16T12:24:05;2.60;;;1.27;;
18612;SDS011;9436;52.152;21.032;2022-09-16T12:26:39;2.93;;;1.20;;
18612;SDS011;9436;52.152;21.032;2022-09-16T12:29:10;2.20;;;1.13;;
18612;SDS011;9436;52.152;21.032;2022-09-16T12:31:45;2.70;;;1.13;;
18612;SDS011;9436;52.152;21.032;2022-09-16T12:34:17;2.43;;;1.00;;
18612;SDS011;9436;52.152;21.032;2022-09-16T12:36:48;3.17;;;1.30;;
18612;SDS011;9436;52.152;21.032;2022-09-16T12:39:20;2.50;;;1.10;;
18612;SDS011;9436;52.152;21.032;2022-09-16T12:42:00;2.50;;;1.23;;
18612;SDS011;9436;52.152;21.032;2022-09-16T12:44:52;2.80;;;1.30;;
18612;SDS011;9436;52.152;21.032;2022-09-16T12:47:39;4.67;;;1.10;;
18612;SDS011;9436;52.152;21.032;2022-09-16T12:50:34;1.23;;;1.00;;
18612;SDS011;9436;52.152;21.032;2022-09-16T12:56:19;2.13;;;1.20;;
18612;SDS011;9436;52.152;21.032;2022-09-16T12:59:11;3.50;;;1.40;;
18612;SDS011;9436;52.152;21.032;2022-09-16T13:01:55;2.30;;;1.00;;
18612;SDS011;9436;52.152;21.032;2022-09-16T13:04:26;2.30;;;1.00;;
18612;SDS011;9436;52.152;21.032;2022-09-16T13:06:57;4.27;;;1.20;;
18612;SDS011;9436;52.152;21.032;2022-09-16T13:09:26;2.73;;;1.20;;
18612;SDS011;9436;52.152;21.032;2022-09-16T13:11:57;2.67;;;1.07;;
18612;SDS011;9436;52.152;21.032;2022-09-16T13:14:27;2.43;;;1.07;;
18612;SDS011;9436;52.152;21.032;2022-09-16T13:16:56;3.43;;;1.30;;
18612;SDS011;9436;52.152;21.032;2022-09-16T13:19:36;3.63;;;1.03;;
18612;SDS011;9436;52.152;21.032;2022-09-16T13:22:18;1.33;;;1.13;;
18612;SDS011;9436;52.152;21.032;2022-09-16T13:24:49;5.57;;;1.50;;
18612;SDS011;9436;52.152;21.032;2022-09-16T13:27:30;3.63;;;1.20;;
18612;SDS011;9436;52.152;21.032;2022-09-16T13:32:57;2.07;;;0.90;;
18612;SDS011;9436;52.152;21.032;2022-09-16T13:35:36;2.63;;;1.20;;
18612;SDS011;9436;52.152;21.032;2022-09-16T13:38:23;2.43;;;1.27;;
18612;SDS011;9436;52.152;21.032;2022-09-16T13:41:03;3.53;;;1.10;;
18612;SDS011;9436;52.152;21.032;2022-09-16T13:43:31;3.07;;;1.17;;
18612;SDS011;9436;52.152;21.032;2022-09-16T13:46:05;1.20;;;0.87;;
18612;SDS011;9436;52.152;21.032;2022-09-16T13:48:38;2.10;;;0.83;;
18612;SDS011;9436;52.152;21.032;2022-09-16T13:51:12;3.13;;;1.20;;
18612;SDS011;9436;52.152;21.032;2022-09-16T13:53:45;2.37;;;1.07;;
18612;SDS011;9436;52.152;21.032;2022-09-16T13:56:21;1.77;;;0.90;;
18612;SDS011;9436;52.152;21.032;2022-09-16T13:59:09;3.63;;;1.20;;
18612;SDS011;9436;52.152;21.032;2022-09-16T14:01:47;4.03;;;1.10;;
18612;SDS011;9436;52.152;21.032;2022-09-16T14:04:22;2.93;;;1.60;;
18612;SDS011;9436;52.152;21.032;2022-09-16T14:07:09;2.30;;;1.70;;
18612;SDS011;9436;52.152;21.032;2022-09-16T14:09:51;3.10;;;1.00;;
18612;SDS011;9436;52.152;21.032;2022-09-16T14:12:27;1.37;;;0.90;;
18612;SDS011;9436;52.152;21.032;2022-09-16T14:15:03;1.63;;;1.00;;
18612;SDS011;9436;52.152;21.032;2022-09-16T14:17:35;3.03;;;1.17;;
18612;SDS011;9436;52.152;21.032;2022-09-16T14:20:05;4.07;;;1.10;;
18612;SDS011;9436;52.152;21.032;2022-09-16T14:22:40;4.53;;;1.90;;
18612;SDS011;9436;52.152;21.032;2022-09-16T14:28:14;6.00;;;1.30;;
18612;SDS011;9436;52.152;21.032;2022-09-16T14:30:49;2.30;;;1.20;;
18612;SDS011;9436;52.152;21.032;2022-09-16T14:33:20;4.47;;;1.27;;
18612;SDS011;9436;52.152;21.032;2022-09-16T14:35:51;3.63;;;1.20;;
18612;SDS011;9436;52.152;21.032;2022-09-16T14:38:21;1.87;;;1.00;;
18612;SDS011;9436;52.152;21.032;2022-09-16T14:40:55;2.30;;;1.30;;
18612;SDS011;9436;52.152;21.032;2022-09-16T14:43:23;2.43;;;1.20;;
18612;SDS011;9436;52.152;21.032;2022-09-16T14:45:52;3.47;;;1.17;;
18612;SDS011;9436;52.152;21.032;2022-09-16T14:48:26;3.03;;;1.30;;
18612;SDS011;9436;52.152;21.032;2022-09-16T14:50:58;3.30;;;1.03;;
18612;SDS011;9436;52.152;21.032;2022-09-16T14:53:28;3.63;;;1.30;;
18612;SDS011;9436;52.152;21.032;2022-09-16T14:55:56;1.80;;;1.03;;
18612;SDS011;9436;52.152;21.032;2022-09-16T14:58:26;1.60;;;1.13;;
18612;SDS011;9436;52.152;21.032;2022-09-16T15:00:55;5.60;;;1.40;;
18612;SDS011;9436;52.152;21.032;2022-09-16T15:03:26;2.53;;;1.10;;
18612;SDS011;9436;52.152;21.032;2022-09-16T15:05:57;3.23;;;1.47;;
18612;SDS011;9436;52.152;21.032;2022-09-16T15:08:31;2.93;;;1.20;;
18612;SDS011;9436;52.152;21.032;2022-09-16T15:11:03;1.47;;;1.27;;
18612;SDS011;9436;52.152;21.032;2022-09-16T15:13:38;3.17;;;1.10;;
18612;SDS011;9436;52.152;21.032;2022-09-16T15:16:08;3.60;;;1.50;;
18612;SDS011;9436;52.152;21.032;2022-09-16T15:18:37;2.97;;;1.13;;
18612;SDS011;9436;52.152;21.032;2022-09-16T15:21:07;3.20;;;1.20;;
18612;SDS011;9436;52.152;21.032;2022-09-16T15:23:36;4.57;;;1.23;;
18612;SDS011;9436;52.152;21.032;2022-09-16T15:26:12;2.30;;;1.20;;
18612;SDS011;9436;52.152;21.032;2022-09-16T15:28:49;3.47;;;1.20;;
18612;SDS011;9436;52.152;21.032;2022-09-16T15:34:18;1.90;;;1.10;;
18612;SDS011;9436;52.152;21.032;2022-09-16T15:36:46;4.80;;;1.50;;
18612;SDS011;9436;52.152;21.032;2022-09-16T15:39:21;2.90;;;1.20;;
18612;SDS011;9436;52.152;21.032;2022-09-16T15:42:02;3.87;;;1.30;;